sensor_id;sensor_type;location;lat;lon;timestamp;P1;durP1;ratioP1;P2;durP2;ratioP2
9821;SDS011;4950;46.042;14.472;2023-04-07T00:01:06;19.73;;;11.93;;
9821;SDS011;4950;46.042;14.472;2023-04-07T00:03:32;23.42;;;12.52;;
9821;SDS011;4950;46.042;14.472;2023-04-07T00:05:59;24.98;;;13.65;;
9821;SDS011;4950;46.042;14.472;2023-04-07T00:08:26;21.38;;;12.48;;
9821;SDS011;4950;46.042;14.472;2023-04-07T00:10:53;23.63;;;12.18;;
9821;SDS011;4950;46.042;14.472;2023-04-07T00:13:21;28.58;;;15.05;;
9821;SDS011;4950;46.042;14.472;2023-04-07T00:15:47;23.00;;;13.02;;
9821;SDS011;4950;46.042;14.472;2023-04-07T00:18:14;22.00;;;12.38;;
9821;SDS011;4950;46.042;14.472;2023-04-07T00:20:41;21.92;;;12.02;;
9821;SDS011;4950;46.042;14.472;2023-04-07T00:23:07;22.77;;;11.75;;
9821;SDS011;4950;46.042;14.472;2023-04-07T00:25:34;25.20;;;12.57;;
9821;SDS011;4950;46.042;14.472;2023-04-07T00:28:01;23.33;;;12.18;;
9821;SDS011;4950;46.042;14.472;2023-04-07T00:30:29;24.92;;;12.23;;
9821;SDS011;4950;46.042;14.472;2023-04-07T00:32:56;22.98;;;12.45;;
9821;SDS011;4950;46.042;14.472;2023-04-07T00:35:22;21.52;;;11.32;;
9821;SDS011;4950;46.042;14.472;2023-04-07T00:37:49;20.17;;;12.30;;
9821;SDS011;4950;46.042;14.472;2023-04-07T00:40:16;24.63;;;12.13;;
9821;SDS011;4950;46.042;14.472;2023-04-07T00:42:43;17.30;;;10.35;;
9821;SDS011;4950;46.042;14.472;2023-04-07T00:45:10;17.95;;;11.00;;
9821;SDS011;4950;46.042;14.472;2023-04-07T00:47:38;17.98;;;10.20;;
9821;SDS011;4950;46.042;14.472;2023-04-07T00:50:05;21.17;;;10.98;;
9821;SDS011;4950;46.042;14.472;2023-04-07T00:52:33;20.95;;;10.93;;
9821;SDS011;4950;46.042;14.472;2023-04-07T00:54:59;18.67;;;11.20;;
9821;SDS011;4950;46.042;14.472;2023-04-07T00:57:26;19.02;;;11.32;;
9821;SDS011;4950;46.042;14.472;2023-04-07T00:59:53;23.98;;;10.90;;
9821;SDS011;4950;46.042;14.472;2023-04-07T01:02:22;20.63;;;10.70;;
9821;SDS011;4950;46.042;14.472;2023-04-07T01:04:58;21.77;;;11.13;;
9821;SDS011;4950;46.042;14.472;2023-04-07T01:07:33;19.77;;;10.93;;
9821;SDS011;4950;46.042;14.472;2023-04-07T01:10:04;19.63;;;12.02;;
9821;SDS011;4950;46.042;14.472;2023-04-07T01:12:33;20.13;;;11.52;;
9821;SDS011;4950;46.042;14.472;2023-04-07T01:15:06;20.45;;;11.27;;
9821;SDS011;4950;46.042;14.472;2023-04-07T01:17:36;18.38;;;10.95;;
9821;SDS011;4950;46.042;14.472;2023-04-07T01:20:06;20.20;;;11.90;;
9821;SDS011;4950;46.042;14.472;2023-04-07T01:22:38;20.15;;;11.05;;
9821;SDS011;4950;46.042;14.472;2023-04-07T01:25:21;23.73;;;11.60;;
9821;SDS011;4950;46.042;14.472;2023-04-07T01:27:58;25.23;;;10.90;;
9821;SDS011;4950;46.042;14.472;2023-04-07T01:30:38;18.10;;;10.63;;
9821;SDS011;4950;46.042;14.472;2023-04-07T01:33:06;20.45;;;9.70;;
9821;SDS011;4950;46.042;14.472;2023-04-07T01:35:35;18.23;;;10.50;;
9821;SDS011;4950;46.042;14.472;2023-04-07T01:38:02;18.05;;;10.65;;
9821;SDS011;4950;46.042;14.472;2023-04-07T01:40:31;20.77;;;11.43;;
9821;SDS011;4950;46.042;14.472;2023-04-07T01:42:59;18.90;;;10.67;;
9821;SDS011;4950;46.042;14.472;2023-04-07T01:45:26;23.13;;;11.07;;
9821;SDS011;4950;46.042;14.472;2023-04-07T01:47:57;20.05;;;11.00;;
9821;SDS011;4950;46.042;14.472;2023-04-07T01:50:25;18.90;;;10.35;;
9821;SDS011;4950;46.042;14.472;2023-04-07T01:52:53;17.40;;;10.33;;
9821;SDS011;4950;46.042;14.472;2023-04-07T01:55:21;18.40;;;10.13;;
9821;SDS011;4950;46.042;14.472;2023-04-07T01:57:48;18.70;;;10.57;;
9821;SDS011;4950;46.042;14.472;2023-04-07T02:00:15;20.73;;;11.73;;
9821;SDS011;4950;46.042;14.472;2023-04-07T02:02:43;23.80;;;11.00;;
9821;SDS011;4950;46.042;14.472;2023-04-07T02:05:13;21.10;;;11.25;;
9821;SDS011;4950;46.042;14.472;2023-04-07T02:07:45;19.43;;;11.03;;
9821;SDS011;4950;46.042;14.472;2023-04-07T02:10:18;22.10;;;12.30;;
9821;SDS011;4950;46.042;14.472;2023-04-07T02:12:47;18.83;;;10.17;;
9821;SDS011;4950;46.042;14.472;2023-04-07T02:15:15;17.53;;;10.73;;
9821;SDS011;4950;46.042;14.472;2023-04-07T02:17:45;16.58;;;10.43;;
9821;SDS011;4950;46.042;14.472;2023-04-07T02:20:16;18.53;;;10.50;;
9821;SDS011;4950;46.042;14.472;2023-04-07T02:22:45;22.47;;;11.47;;
9821;SDS011;4950;46.042;14.472;2023-04-07T02:25:21;21.87;;;11.57;;
9821;SDS011;4950;46.042;14.472;2023-04-07T02:27:49;17.30;;;10.13;;
9821;SDS011;4950;46.042;14.472;2023-04-07T02:30:16;21.07;;;10.97;;
9821;SDS011;4950;46.042;14.472;2023-04-07T02:32:43;18.77;;;10.60;;
9821;SDS011;4950;46.042;14.472;2023-04-07T02:35:10;18.67;;;10.40;;
9821;SDS011;4950;46.042;14.472;2023-04-07T02:37:38;18.10;;;11.20;;
9821;SDS011;4950;46.042;14.472;2023-04-07T02:40:05;20.10;;;11.40;;
9821;SDS011;4950;46.042;14.472;2023-04-07T02:42:33;20.27;;;11.67;;
9821;SDS011;4950;46.042;14.472;2023-04-07T02:45:00;20.87;;;11.23;;
9821;SDS011;4950;46.042;14.472;2023-04-07T02:47:27;22.37;;;11.97;;
9821;SDS011;4950;46.042;14.472;2023-04-07T02:49:54;19.53;;;10.17;;
9821;SDS011;4950;46.042;14.472;2023-04-07T02:52:20;19.93;;;11.23;;
9821;SDS011;4950;46.042;14.472;2023-04-07T02:54:48;20.47;;;11.63;;
9821;SDS011;4950;46.042;14.472;2023-04-07T02:57:15;17.53;;;11.27;;
9821;SDS011;4950;46.042;14.472;2023-04-07T02:59:42;20.00;;;10.07;;
9821;SDS011;4950;46.042;14.472;2023-04-07T03:02:08;20.77;;;11.27;;
9821;SDS011;4950;46.042;14.472;2023-04-07T03:04:35;20.53;;;11.43;;
9821;SDS011;4950;46.042;14.472;2023-04-07T03:07:02;23.53;;;10.87;;
9821;SDS011;4950;46.042;14.472;2023-04-07T03:09:28;22.00;;;11.47;;
9821;SDS011;4950;46.042;14.472;2023-04-07T03:11:56;17.73;;;9.73;;
9821;SDS011;4950;46.042;14.472;2023-04-07T03:14:23;15.20;;;9.50;;
9821;SDS011;4950;46.042;14.472;2023-04-07T03:16:50;18.40;;;9.47;;
9821;SDS011;4950;46.042;14.472;2023-04-07T03:19:16;14.93;;;9.20;;
9821;SDS011;4950;46.042;14.472;2023-04-07T03:21:43;18.07;;;10.03;;
9821;SDS011;4950;46.042;14.472;2023-04-07T03:24:10;16.30;;;9.37;;
9821;SDS011;4950;46.042;14.472;2023-04-07T03:26:36;20.90;;;10.13;;
9821;SDS011;4950;46.042;14.472;2023-04-07T03:29:04;16.73;;;9.70;;
9821;SDS011;4950;46.042;14.472;2023-04-07T03:31:31;17.17;;;9.50;;
9821;SDS011;4950;46.042;14.472;2023-04-07T03:33:58;17.37;;;8.63;;
9821;SDS011;4950;46.042;14.472;2023-04-07T03:36:24;15.07;;;8.83;;
9821;SDS011;4950;46.042;14.472;2023-04-07T03:38:52;17.60;;;8.87;;
9821;SDS011;4950;46.042;14.472;2023-04-07T03:41:18;19.30;;;9.43;;
9821;SDS011;4950;46.042;14.472;2023-04-07T03:43:45;16.33;;;8.60;;
9821;SDS011;4950;46.042;14.472;2023-04-07T03:46:13;15.07;;;8.87;;
9821;SDS011;4950;46.042;14.472;2023-04-07T03:48:40;15.73;;;8.40;;
9821;SDS011;4950;46.042;14.472;2023-04-07T03:51:07;19.10;;;8.83;;
9821;SDS011;4950;46.042;14.472;2023-04-07T03:53:33;18.00;;;8.70;;
9821;SDS011;4950;46.042;14.472;2023-04-07T03:56:00;18.07;;;8.77;;
9821;SDS011;4950;46.042;14.472;2023-04-07T03:58:27;16.07;;;8.77;;
9821;SDS011;4950;46.042;14.472;2023-04-07T04:00:54;18.33;;;9.90;;
9821;SDS011;4950;46.042;14.472;2023-04-07T04:03:22;16.97;;;9.80;;
9821;SDS011;4950;46.042;14.472;2023-04-07T04:05:48;25.07;;;10.40;;
9821;SDS011;4950;46.042;14.472;2023-04-07T04:08:15;21.97;;;11.70;;
9821;SDS011;4950;46.042;14.472;2023-04-07T04:10:42;20.93;;;11.53;;
9821;SDS011;4950;46.042;14.472;2023-04-07T04:13:08;19.33;;;10.83;;
9821;SDS011;4950;46.042;14.472;2023-04-07T04:15:35;27.07;;;11.57;;
9821;SDS011;4950;46.042;14.472;2023-04-07T04:18:02;18.67;;;10.77;;
9821;SDS011;4950;46.042;14.472;2023-04-07T04:20:30;21.50;;;10.80;;
9821;SDS011;4950;46.042;14.472;2023-04-07T04:22:57;19.90;;;11.40;;
9821;SDS011;4950;46.042;14.472;2023-04-07T04:25:23;20.23;;;10.07;;
9821;SDS011;4950;46.042;14.472;2023-04-07T04:27:50;20.43;;;9.87;;
9821;SDS011;4950;46.042;14.472;2023-04-07T04:30:17;18.03;;;10.83;;
9821;SDS011;4950;46.042;14.472;2023-04-07T04:32:44;22.77;;;10.13;;
9821;SDS011;4950;46.042;14.472;2023-04-07T04:35:10;20.27;;;9.73;;
9821;SDS011;4950;46.042;14.472;2023-04-07T04:37:38;21.40;;;11.00;;
9821;SDS011;4950;46.042;14.472;2023-04-07T04:40:05;27.13;;;11.83;;
9821;SDS011;4950;46.042;14.472;2023-04-07T04:42:33;26.93;;;10.83;;
9821;SDS011;4950;46.042;14.472;2023-04-07T04:45:00;22.00;;;10.53;;
9821;SDS011;4950;46.042;14.472;2023-04-07T04:47:27;24.57;;;10.87;;
9821;SDS011;4950;46.042;14.472;2023-04-07T04:49:53;28.37;;;13.40;;
9821;SDS011;4950;46.042;14.472;2023-04-07T04:52:20;31.27;;;11.83;;
9821;SDS011;4950;46.042;14.472;2023-04-07T04:54:48;32.23;;;11.63;;
9821;SDS011;4950;46.042;14.472;2023-04-07T04:57:15;28.77;;;11.30;;
9821;SDS011;4950;46.042;14.472;2023-04-07T04:59:41;34.83;;;17.13;;
9821;SDS011;4950;46.042;14.472;2023-04-07T05:02:08;30.50;;;14.97;;
9821;SDS011;4950;46.042;14.472;2023-04-07T05:04:35;49.13;;;18.07;;
9821;SDS011;4950;46.042;14.472;2023-04-07T05:07:01;30.20;;;16.30;;
9821;SDS011;4950;46.042;14.472;2023-04-07T05:09:28;43.20;;;15.80;;
9821;SDS011;4950;46.042;14.472;2023-04-07T05:11:57;31.40;;;13.23;;
9821;SDS011;4950;46.042;14.472;2023-04-07T05:14:24;30.87;;;11.27;;
9821;SDS011;4950;46.042;14.472;2023-04-07T05:16:50;28.87;;;10.33;;
9821;SDS011;4950;46.042;14.472;2023-04-07T05:19:18;20.57;;;10.07;;
9821;SDS011;4950;46.042;14.472;2023-04-07T05:21:45;23.43;;;11.17;;
9821;SDS011;4950;46.042;14.472;2023-04-07T05:24:11;26.03;;;11.07;;
9821;SDS011;4950;46.042;14.472;2023-04-07T05:26:38;28.50;;;11.87;;
9821;SDS011;4950;46.042;14.472;2023-04-07T05:29:06;29.47;;;12.70;;
9821;SDS011;4950;46.042;14.472;2023-04-07T05:31:33;22.83;;;11.77;;
9821;SDS011;4950;46.042;14.472;2023-04-07T05:34:01;22.90;;;12.27;;
9821;SDS011;4950;46.042;14.472;2023-04-07T05:36:28;28.53;;;12.47;;
9821;SDS011;4950;46.042;14.472;2023-04-07T05:38:55;28.00;;;12.43;;
9821;SDS011;4950;46.042;14.472;2023-04-07T05:41:22;27.43;;;13.17;;
9821;SDS011;4950;46.042;14.472;2023-04-07T05:43:48;30.53;;;12.23;;
9821;SDS011;4950;46.042;14.472;2023-04-07T05:46:16;23.03;;;10.87;;
9821;SDS011;4950;46.042;14.472;2023-04-07T05:48:43;28.97;;;11.03;;
9821;SDS011;4950;46.042;14.472;2023-04-07T05:51:10;26.03;;;10.33;;
9821;SDS011;4950;46.042;14.472;2023-04-07T05:53:37;24.23;;;11.03;;
9821;SDS011;4950;46.042;14.472;2023-04-07T05:56:03;23.00;;;11.93;;
9821;SDS011;4950;46.042;14.472;2023-04-07T05:58:31;23.83;;;10.90;;
9821;SDS011;4950;46.042;14.472;2023-04-07T06:00:58;23.47;;;10.97;;
9821;SDS011;4950;46.042;14.472;2023-04-07T06:03:26;26.23;;;13.23;;
9821;SDS011;4950;46.042;14.472;2023-04-07T06:05:52;27.30;;;12.07;;
9821;SDS011;4950;46.042;14.472;2023-04-07T06:08:19;30.53;;;13.93;;
9821;SDS011;4950;46.042;14.472;2023-04-07T06:10:46;23.97;;;12.87;;
9821;SDS011;4950;46.042;14.472;2023-04-07T06:13:12;23.57;;;12.77;;
9821;SDS011;4950;46.042;14.472;2023-04-07T06:15:39;31.87;;;13.60;;
9821;SDS011;4950;46.042;14.472;2023-04-07T06:18:06;23.30;;;11.73;;
9821;SDS011;4950;46.042;14.472;2023-04-07T06:20:34;20.37;;;11.37;;
9821;SDS011;4950;46.042;14.472;2023-04-07T06:23:00;27.77;;;12.43;;
9821;SDS011;4950;46.042;14.472;2023-04-07T06:25:27;23.30;;;11.00;;
9821;SDS011;4950;46.042;14.472;2023-04-07T06:27:54;20.17;;;12.03;;
9821;SDS011;4950;46.042;14.472;2023-04-07T06:30:21;20.93;;;12.17;;
9821;SDS011;4950;46.042;14.472;2023-04-07T06:32:47;25.23;;;12.03;;
9821;SDS011;4950;46.042;14.472;2023-04-07T06:35:14;24.23;;;12.03;;
9821;SDS011;4950;46.042;14.472;2023-04-07T06:37:42;23.53;;;12.50;;
9821;SDS011;4950;46.042;14.472;2023-04-07T06:40:09;25.87;;;12.90;;
9821;SDS011;4950;46.042;14.472;2023-04-07T06:42:36;22.97;;;12.70;;
9821;SDS011;4950;46.042;14.472;2023-04-07T06:45:03;30.53;;;14.90;;
9821;SDS011;4950;46.042;14.472;2023-04-07T06:47:30;27.33;;;13.70;;
9821;SDS011;4950;46.042;14.472;2023-04-07T06:49:57;26.43;;;14.97;;
9821;SDS011;4950;46.042;14.472;2023-04-07T06:52:24;25.53;;;14.27;;
9821;SDS011;4950;46.042;14.472;2023-04-07T06:54:52;22.10;;;13.77;;
9821;SDS011;4950;46.042;14.472;2023-04-07T06:57:18;27.77;;;14.57;;
9821;SDS011;4950;46.042;14.472;2023-04-07T06:59:45;24.17;;;13.23;;
9821;SDS011;4950;46.042;14.472;2023-04-07T07:02:12;24.73;;;13.87;;
9821;SDS011;4950;46.042;14.472;2023-04-07T07:04:38;24.07;;;13.90;;
9821;SDS011;4950;46.042;14.472;2023-04-07T07:07:05;23.90;;;13.83;;
9821;SDS011;4950;46.042;14.472;2023-04-07T07:09:32;26.17;;;13.23;;
9821;SDS011;4950;46.042;14.472;2023-04-07T07:12:00;25.67;;;13.93;;
9821;SDS011;4950;46.042;14.472;2023-04-07T07:14:27;24.80;;;13.87;;
9821;SDS011;4950;46.042;14.472;2023-04-07T07:16:54;25.43;;;14.30;;
9821;SDS011;4950;46.042;14.472;2023-04-07T07:19:21;26.73;;;13.40;;
9821;SDS011;4950;46.042;14.472;2023-04-07T07:21:47;22.93;;;13.97;;
9821;SDS011;4950;46.042;14.472;2023-04-07T07:24:14;23.70;;;14.20;;
9821;SDS011;4950;46.042;14.472;2023-04-07T07:26:41;24.50;;;12.57;;
9821;SDS011;4950;46.042;14.472;2023-04-07T07:29:10;23.58;;;12.80;;
9821;SDS011;4950;46.042;14.472;2023-04-07T07:31:38;23.13;;;13.77;;
9821;SDS011;4950;46.042;14.472;2023-04-07T07:34:05;28.83;;;13.83;;
9821;SDS011;4950;46.042;14.472;2023-04-07T07:36:31;25.65;;;14.80;;
9821;SDS011;4950;46.042;14.472;2023-04-07T07:38:58;25.80;;;15.05;;
9821;SDS011;4950;46.042;14.472;2023-04-07T07:41:25;25.35;;;15.25;;
9821;SDS011;4950;46.042;14.472;2023-04-07T07:43:52;27.20;;;15.27;;
9821;SDS011;4950;46.042;14.472;2023-04-07T07:46:20;24.52;;;14.32;;
9821;SDS011;4950;46.042;14.472;2023-04-07T07:48:48;27.98;;;15.40;;
9821;SDS011;4950;46.042;14.472;2023-04-07T07:51:15;26.98;;;14.60;;
9821;SDS011;4950;46.042;14.472;2023-04-07T07:53:42;27.55;;;15.23;;
9821;SDS011;4950;46.042;14.472;2023-04-07T07:56:09;24.10;;;15.15;;
9821;SDS011;4950;46.042;14.472;2023-04-07T07:58:36;29.88;;;14.60;;
9821;SDS011;4950;46.042;14.472;2023-04-07T08:01:02;35.08;;;15.70;;
9821;SDS011;4950;46.042;14.472;2023-04-07T08:03:31;27.27;;;14.50;;
9821;SDS011;4950;46.042;14.472;2023-04-07T08:05:57;30.30;;;15.30;;
9821;SDS011;4950;46.042;14.472;2023-04-07T08:08:25;25.00;;;14.32;;
9821;SDS011;4950;46.042;14.472;2023-04-07T08:10:51;26.85;;;15.85;;
9821;SDS011;4950;46.042;14.472;2023-04-07T08:13:18;27.30;;;15.48;;
9821;SDS011;4950;46.042;14.472;2023-04-07T08:15:45;26.27;;;14.55;;
9821;SDS011;4950;46.042;14.472;2023-04-07T08:18:12;28.27;;;14.85;;
9821;SDS011;4950;46.042;14.472;2023-04-07T08:20:40;22.52;;;13.38;;
9821;SDS011;4950;46.042;14.472;2023-04-07T08:23:06;26.08;;;14.88;;
9821;SDS011;4950;46.042;14.472;2023-04-07T08:25:33;25.02;;;15.07;;
9821;SDS011;4950;46.042;14.472;2023-04-07T08:28:00;24.73;;;15.27;;
9821;SDS011;4950;46.042;14.472;2023-04-07T08:30:27;24.75;;;15.13;;
9821;SDS011;4950;46.042;14.472;2023-04-07T08:32:53;25.08;;;15.23;;
9821;SDS011;4950;46.042;14.472;2023-04-07T08:35:20;31.45;;;14.80;;
9821;SDS011;4950;46.042;14.472;2023-04-07T08:37:48;24.15;;;14.07;;
9821;SDS011;4950;46.042;14.472;2023-04-07T08:40:15;25.17;;;13.27;;
9821;SDS011;4950;46.042;14.472;2023-04-07T08:42:45;26.95;;;14.52;;
9821;SDS011;4950;46.042;14.472;2023-04-07T08:45:15;24.98;;;13.80;;
9821;SDS011;4950;46.042;14.472;2023-04-07T08:47:43;26.33;;;13.43;;
9821;SDS011;4950;46.042;14.472;2023-04-07T08:50:13;23.90;;;13.20;;
9821;SDS011;4950;46.042;14.472;2023-04-07T08:52:43;23.50;;;12.93;;
9821;SDS011;4950;46.042;14.472;2023-04-07T08:55:12;22.48;;;14.20;;
9821;SDS011;4950;46.042;14.472;2023-04-07T08:57:40;25.45;;;14.32;;
9821;SDS011;4950;46.042;14.472;2023-04-07T09:00:08;24.65;;;13.40;;
9821;SDS011;4950;46.042;14.472;2023-04-07T09:02:36;21.90;;;12.70;;
9821;SDS011;4950;46.042;14.472;2023-04-07T09:05:05;26.13;;;13.77;;
9821;SDS011;4950;46.042;14.472;2023-04-07T09:07:33;32.37;;;14.17;;
9821;SDS011;4950;46.042;14.472;2023-04-07T09:10:01;22.08;;;12.30;;
9821;SDS011;4950;46.042;14.472;2023-04-07T09:12:30;28.05;;;13.57;;
9821;SDS011;4950;46.042;14.472;2023-04-07T09:14:57;26.73;;;13.05;;
9821;SDS011;4950;46.042;14.472;2023-04-07T09:17:24;23.75;;;13.55;;
9821;SDS011;4950;46.042;14.472;2023-04-07T09:19:51;24.40;;;13.13;;
9821;SDS011;4950;46.042;14.472;2023-04-07T09:22:33;53.67;;;18.88;;
9821;SDS011;4950;46.042;14.472;2023-04-07T09:25:08;36.45;;;15.45;;
9821;SDS011;4950;46.042;14.472;2023-04-07T09:27:37;22.92;;;14.00;;
9821;SDS011;4950;46.042;14.472;2023-04-07T09:30:10;26.02;;;12.90;;
9821;SDS011;4950;46.042;14.472;2023-04-07T09:32:38;25.58;;;13.48;;
9821;SDS011;4950;46.042;14.472;2023-04-07T09:35:06;27.48;;;14.82;;
9821;SDS011;4950;46.042;14.472;2023-04-07T09:37:33;24.33;;;12.70;;
9821;SDS011;4950;46.042;14.472;2023-04-07T09:40:00;22.88;;;12.13;;
9821;SDS011;4950;46.042;14.472;2023-04-07T09:42:27;26.10;;;12.18;;
9821;SDS011;4950;46.042;14.472;2023-04-07T09:44:58;22.83;;;12.55;;
9821;SDS011;4950;46.042;14.472;2023-04-07T09:47:25;24.00;;;12.88;;
9821;SDS011;4950;46.042;14.472;2023-04-07T09:49:54;25.35;;;11.25;;
9821;SDS011;4950;46.042;14.472;2023-04-07T09:52:24;19.60;;;12.02;;
9821;SDS011;4950;46.042;14.472;2023-04-07T09:55:11;23.15;;;11.75;;
9821;SDS011;4950;46.042;14.472;2023-04-07T09:57:38;26.50;;;11.82;;
9821;SDS011;4950;46.042;14.472;2023-04-07T10:00:09;23.47;;;12.00;;
9821;SDS011;4950;46.042;14.472;2023-04-07T10:05:03;17.77;;;9.55;;
9821;SDS011;4950;46.042;14.472;2023-04-07T10:07:30;17.10;;;8.40;;
9821;SDS011;4950;46.042;14.472;2023-04-07T10:09:57;16.05;;;9.13;;
9821;SDS011;4950;46.042;14.472;2023-04-07T10:12:24;16.13;;;9.90;;
9821;SDS011;4950;46.042;14.472;2023-04-07T10:14:52;16.45;;;10.70;;
9821;SDS011;4950;46.042;14.472;2023-04-07T10:17:22;17.52;;;10.48;;
9821;SDS011;4950;46.042;14.472;2023-04-07T10:19:49;18.40;;;9.87;;
9821;SDS011;4950;46.042;14.472;2023-04-07T10:22:17;20.10;;;9.43;;
9821;SDS011;4950;46.042;14.472;2023-04-07T10:24:45;19.40;;;10.50;;
9821;SDS011;4950;46.042;14.472;2023-04-07T10:27:22;19.70;;;9.60;;
9821;SDS011;4950;46.042;14.472;2023-04-07T10:29:54;17.70;;;9.75;;
9821;SDS011;4950;46.042;14.472;2023-04-07T10:32:23;17.08;;;9.20;;
9821;SDS011;4950;46.042;14.472;2023-04-07T10:34:57;17.02;;;8.60;;
9821;SDS011;4950;46.042;14.472;2023-04-07T10:37:25;19.48;;;8.57;;
9821;SDS011;4950;46.042;14.472;2023-04-07T10:42:53;18.58;;;9.18;;
9821;SDS011;4950;46.042;14.472;2023-04-07T10:59:32;30.15;;;9.55;;
9821;SDS011;4950;46.042;14.472;2023-04-07T11:05:00;14.02;;;8.43;;
9821;SDS011;4950;46.042;14.472;2023-04-07T11:07:44;13.98;;;7.50;;
9821;SDS011;4950;46.042;14.472;2023-04-07T11:10:14;13.70;;;7.60;;
9821;SDS011;4950;46.042;14.472;2023-04-07T11:15:16;16.65;;;9.52;;
9821;SDS011;4950;46.042;14.472;2023-04-07T11:17:43;11.13;;;6.43;;
9821;SDS011;4950;46.042;14.472;2023-04-07T11:20:11;12.52;;;6.32;;
9821;SDS011;4950;46.042;14.472;2023-04-07T11:22:38;12.23;;;6.82;;
9821;SDS011;4950;46.042;14.472;2023-04-07T11:25:19;12.38;;;8.10;;
9821;SDS011;4950;46.042;14.472;2023-04-07T11:27:47;25.25;;;10.52;;
9821;SDS011;4950;46.042;14.472;2023-04-07T11:30:14;12.18;;;7.22;;
9821;SDS011;4950;46.042;14.472;2023-04-07T11:32:46;12.45;;;7.15;;
9821;SDS011;4950;46.042;14.472;2023-04-07T11:35:15;11.32;;;6.75;;
9821;SDS011;4950;46.042;14.472;2023-04-07T11:37:42;21.52;;;7.72;;
9821;SDS011;4950;46.042;14.472;2023-04-07T11:40:09;11.05;;;6.93;;
9821;SDS011;4950;46.042;14.472;2023-04-07T11:42:38;9.52;;;6.07;;
9821;SDS011;4950;46.042;14.472;2023-04-07T11:45:06;13.40;;;7.05;;
9821;SDS011;4950;46.042;14.472;2023-04-07T11:47:42;12.43;;;6.32;;
9821;SDS011;4950;46.042;14.472;2023-04-07T11:50:09;11.85;;;7.05;;
9821;SDS011;4950;46.042;14.472;2023-04-07T11:52:43;12.57;;;7.70;;
9821;SDS011;4950;46.042;14.472;2023-04-07T11:55:17;14.73;;;7.13;;
9821;SDS011;4950;46.042;14.472;2023-04-07T11:57:45;12.70;;;7.05;;
9821;SDS011;4950;46.042;14.472;2023-04-07T12:00:13;11.30;;;6.13;;
9821;SDS011;4950;46.042;14.472;2023-04-07T12:02:40;10.20;;;6.40;;
9821;SDS011;4950;46.042;14.472;2023-04-07T12:05:07;11.35;;;6.40;;
9821;SDS011;4950;46.042;14.472;2023-04-07T12:07:35;13.38;;;6.40;;
9821;SDS011;4950;46.042;14.472;2023-04-07T12:12:56;10.25;;;5.63;;
9821;SDS011;4950;46.042;14.472;2023-04-07T12:15:22;9.38;;;6.15;;
9821;SDS011;4950;46.042;14.472;2023-04-07T12:17:49;10.25;;;5.90;;
9821;SDS011;4950;46.042;14.472;2023-04-07T12:20:16;11.13;;;6.00;;
9821;SDS011;4950;46.042;14.472;2023-04-07T12:22:42;8.70;;;5.35;;
9821;SDS011;4950;46.042;14.472;2023-04-07T12:25:09;10.38;;;5.53;;
9821;SDS011;4950;46.042;14.472;2023-04-07T12:27:36;10.88;;;5.63;;
9821;SDS011;4950;46.042;14.472;2023-04-07T12:30:05;10.27;;;5.47;;
9821;SDS011;4950;46.042;14.472;2023-04-07T12:32:32;13.32;;;5.43;;
9821;SDS011;4950;46.042;14.472;2023-04-07T12:34:59;9.20;;;4.93;;
9821;SDS011;4950;46.042;14.472;2023-04-07T12:37:26;11.25;;;5.85;;
9821;SDS011;4950;46.042;14.472;2023-04-07T12:39:53;9.80;;;5.40;;
9821;SDS011;4950;46.042;14.472;2023-04-07T12:42:19;9.55;;;4.88;;
9821;SDS011;4950;46.042;14.472;2023-04-07T12:44:46;8.93;;;5.20;;
9821;SDS011;4950;46.042;14.472;2023-04-07T12:47:14;13.38;;;6.28;;
9821;SDS011;4950;46.042;14.472;2023-04-07T12:49:41;10.43;;;5.47;;
9821;SDS011;4950;46.042;14.472;2023-04-07T12:52:08;17.02;;;4.57;;
9821;SDS011;4950;46.042;14.472;2023-04-07T12:54:35;9.32;;;5.32;;
9821;SDS011;4950;46.042;14.472;2023-04-07T12:57:02;10.07;;;6.05;;
9821;SDS011;4950;46.042;14.472;2023-04-07T12:59:29;9.25;;;5.28;;
9821;SDS011;4950;46.042;14.472;2023-04-07T13:01:55;12.20;;;5.53;;
9821;SDS011;4950;46.042;14.472;2023-04-07T13:04:23;10.63;;;5.47;;
9821;SDS011;4950;46.042;14.472;2023-04-07T13:06:50;9.50;;;5.93;;
9821;SDS011;4950;46.042;14.472;2023-04-07T13:09:17;9.77;;;5.22;;
9821;SDS011;4950;46.042;14.472;2023-04-07T13:11:44;13.18;;;5.70;;
9821;SDS011;4950;46.042;14.472;2023-04-07T13:14:11;10.95;;;6.03;;
9821;SDS011;4950;46.042;14.472;2023-04-07T13:16:37;9.77;;;4.93;;
9821;SDS011;4950;46.042;14.472;2023-04-07T13:19:04;11.43;;;5.75;;
9821;SDS011;4950;46.042;14.472;2023-04-07T13:21:34;13.18;;;6.03;;
9821;SDS011;4950;46.042;14.472;2023-04-07T13:24:01;11.43;;;5.63;;
9821;SDS011;4950;46.042;14.472;2023-04-07T13:26:28;10.60;;;5.30;;
9821;SDS011;4950;46.042;14.472;2023-04-07T13:28:55;9.48;;;5.38;;
9821;SDS011;4950;46.042;14.472;2023-04-07T13:31:21;9.13;;;5.50;;
9821;SDS011;4950;46.042;14.472;2023-04-07T13:33:48;13.15;;;5.55;;
9821;SDS011;4950;46.042;14.472;2023-04-07T13:36:15;8.00;;;4.68;;
9821;SDS011;4950;46.042;14.472;2023-04-07T13:38:43;12.65;;;5.63;;
9821;SDS011;4950;46.042;14.472;2023-04-07T13:41:10;10.45;;;5.13;;
9821;SDS011;4950;46.042;14.472;2023-04-07T13:43:36;11.55;;;5.25;;
9821;SDS011;4950;46.042;14.472;2023-04-07T13:46:03;10.40;;;5.70;;
9821;SDS011;4950;46.042;14.472;2023-04-07T13:48:30;9.77;;;5.60;;
9821;SDS011;4950;46.042;14.472;2023-04-07T13:50:57;8.40;;;4.93;;
9821;SDS011;4950;46.042;14.472;2023-04-07T13:53:23;13.30;;;5.63;;
9821;SDS011;4950;46.042;14.472;2023-04-07T13:55:51;11.10;;;5.10;;
9821;SDS011;4950;46.042;14.472;2023-04-07T13:58:18;12.63;;;5.95;;
9821;SDS011;4950;46.042;14.472;2023-04-07T14:00:45;11.30;;;5.38;;
9821;SDS011;4950;46.042;14.472;2023-04-07T14:03:11;9.38;;;5.18;;
9821;SDS011;4950;46.042;14.472;2023-04-07T14:05:39;10.50;;;6.68;;
9821;SDS011;4950;46.042;14.472;2023-04-07T14:08:06;15.65;;;6.28;;
9821;SDS011;4950;46.042;14.472;2023-04-07T14:10:32;13.95;;;6.40;;
9821;SDS011;4950;46.042;14.472;2023-04-07T14:13:01;17.17;;;6.20;;
9821;SDS011;4950;46.042;14.472;2023-04-07T14:15:28;14.52;;;7.10;;
9821;SDS011;4950;46.042;14.472;2023-04-07T14:17:55;13.23;;;7.40;;
9821;SDS011;4950;46.042;14.472;2023-04-07T14:20:22;25.40;;;9.30;;
9821;SDS011;4950;46.042;14.472;2023-04-07T14:22:48;12.55;;;8.10;;
9821;SDS011;4950;46.042;14.472;2023-04-07T14:25:16;13.73;;;8.27;;
9821;SDS011;4950;46.042;14.472;2023-04-07T14:27:43;25.50;;;8.35;;
9821;SDS011;4950;46.042;14.472;2023-04-07T14:30:11;15.38;;;8.38;;
9821;SDS011;4950;46.042;14.472;2023-04-07T14:32:38;13.65;;;8.65;;
9821;SDS011;4950;46.042;14.472;2023-04-07T14:35:05;13.93;;;8.73;;
9821;SDS011;4950;46.042;14.472;2023-04-07T14:37:32;16.73;;;8.50;;
9821;SDS011;4950;46.042;14.472;2023-04-07T14:40:00;14.35;;;9.13;;
9821;SDS011;4950;46.042;14.472;2023-04-07T14:42:27;16.80;;;9.13;;
9821;SDS011;4950;46.042;14.472;2023-04-07T14:44:53;15.07;;;9.40;;
9821;SDS011;4950;46.042;14.472;2023-04-07T14:47:22;16.63;;;9.40;;
9821;SDS011;4950;46.042;14.472;2023-04-07T14:49:49;17.38;;;8.82;;
9821;SDS011;4950;46.042;14.472;2023-04-07T14:52:16;12.68;;;8.70;;
9821;SDS011;4950;46.042;14.472;2023-04-07T14:54:43;22.13;;;9.05;;
9821;SDS011;4950;46.042;14.472;2023-04-07T14:57:10;16.90;;;9.00;;
9821;SDS011;4950;46.042;14.472;2023-04-07T14:59:36;14.45;;;8.88;;
9821;SDS011;4950;46.042;14.472;2023-04-07T15:02:03;15.43;;;8.30;;
9821;SDS011;4950;46.042;14.472;2023-04-07T15:04:31;15.60;;;8.95;;
9821;SDS011;4950;46.042;14.472;2023-04-07T15:06:58;15.85;;;9.02;;
9821;SDS011;4950;46.042;14.472;2023-04-07T15:09:25;13.82;;;8.45;;
9821;SDS011;4950;46.042;14.472;2023-04-07T15:11:51;15.48;;;8.20;;